Aviation Digital Data Service (ADDS)

Output produced by METARs form (0500 UTC 21 September 2017)
found at http://www.aviationweather.gov/adds/metars/
 
NSFA 210200Z 00000KT 9999 FEW019CB BKN020 30/21 Q1011 RMK CB TO NW AND DRY AIR 58
NSFA 210100Z 02004KT 9999 FEW020CB SCT022 31/21 Q1012 RMK CB TO W AND DRY AIR 56
NSFA 210000Z 10008KT 9999 FEW020 BKN042 30/22 Q1012 NOSIG
NSFA 202300Z 02004KT 9999 BKN020 30/21 Q1013 RMK DRY AIR 58
NSFA 202200Z 01004KT 9999 SCT023 30/22 Q1013 NOSIG
NSFA 202100Z 02004KT 9999 SCT023 29/22 Q1013 NOSIG
NSFA 202000Z 11007KT 9999 SCT020 28/21 Q1013 NOSIG
NSFA 201900Z 13004KT 9999 FEW024 BKN140 26/23 Q1013 NOSIG
NSFA 201800Z 11003KT 9999 FEW026 SCT160 24/22 Q1012 NOSIG
NSFA 201500Z 00000KT 9999 FEW028 23/23 Q1011 NOSIG
NSFA 201400Z 09005KT 9999 FEW025 24/23 Q1011 NOSIG
NSFA 201300Z 00000KT 9999 FEW024 26/23 Q1011 NOSIG
NSFA 201200Z 11009KT 9999 FEW020 BKN130 26/23 Q1012
NSFA 201100Z 11008KT 9999 SCT020 BKN120 26/22 Q1012
NSFA 201000Z 11008KT 9999 SCT020 BKN110 26/22 Q1012
NSFA 200900Z 11008KT 9999 SCT020 BKN120 26/22 Q1012
NSFA 200800Z 11008KT 9999 SCT020 BKN110 26/22 Q1012
NSFA 200700Z 11009KT 9999 SCT020 BKN290 26/22 Q1011
NSFA 200600Z 11009KT 9999 FEW020 BKN120 26/22 Q1010